createdAt,value
2018-04-07T00:00:58.810Z,100910.21
2018-04-07T00:02:05.944Z,100909.87
2018-04-07T00:03:12.247Z,100911.52
2018-04-07T00:04:20.175Z,100907.27
2018-04-07T00:05:26.191Z,100908.56
2018-04-07T00:06:32.868Z,100911.99
2018-04-07T00:07:39.258Z,100906.83
2018-04-07T00:08:45.726Z,100907.73
2018-04-07T00:09:52.194Z,100903.02
2018-04-07T00:10:58.229Z,100903.05
2018-04-07T00:12:04.636Z,100897.94
2018-04-07T00:13:10.961Z,100899.78
2018-04-07T00:14:19.173Z,100903.17
2018-04-07T00:15:25.483Z,100900.30
2018-04-07T00:16:31.772Z,100899.36
2018-04-07T00:17:38.346Z,100902.46
2018-04-07T00:18:44.597Z,100900.69
2018-04-07T00:19:51.224Z,100898.52
2018-04-07T00:20:58.609Z,100895.93
2018-04-07T00:22:04.896Z,100898.52
2018-04-07T00:23:10.951Z,100897.94
2018-04-07T00:24:17.253Z,100894.55
2018-04-07T00:25:22.921Z,100899.87
2018-04-07T00:26:29.196Z,100899.14
2018-04-07T00:27:35.728Z,100895.64
2018-04-07T00:28:41.956Z,100894.37
2018-04-07T00:29:47.696Z,100899.69
2018-04-07T00:30:53.959Z,100901.92
2018-04-07T00:32:00.218Z,100900.66
2018-04-07T00:33:06.462Z,100901.58
2018-04-07T00:34:12.677Z,100896.33
2018-04-07T00:35:18.896Z,100902.88
2018-04-07T00:36:25.164Z,100894.72
2018-04-07T00:37:31.348Z,100893.36
2018-04-07T00:38:37.880Z,100892.49
2018-04-07T00:39:43.931Z,100898.55
2018-04-07T00:40:50.145Z,100891.63
2018-04-07T00:41:56.444Z,100892.62
2018-04-07T00:43:02.479Z,100889.06
2018-04-07T00:44:08.795Z,100891.29
2018-04-07T00:45:15.304Z,100889.95
2018-04-07T00:46:21.562Z,100891.19
2018-04-07T00:47:27.640Z,100888.59
2018-04-07T00:48:34.726Z,100886.40
2018-04-07T00:49:40.954Z,100882.47
2018-04-07T00:50:47.192Z,100886.00
2018-04-07T00:51:54.087Z,100880.38
2018-04-07T00:53:00.263Z,100884.67
2018-04-07T00:54:06.512Z,100878.57
2018-04-07T00:55:12.792Z,100880.73
2018-04-07T00:56:19.100Z,100886.00
2018-04-07T00:57:25.155Z,100880.10
2018-04-07T00:58:31.424Z,100882.63
2018-04-07T00:59:37.679Z,100882.38
2018-04-07T01:00:43.696Z,100882.36
2018-04-07T01:01:50.193Z,100874.13
2018-04-07T01:02:56.986Z,100874.59
2018-04-07T01:04:03.229Z,100873.35
2018-04-07T01:05:09.504Z,100872.92
2018-04-07T01:06:15.750Z,100872.86
2018-04-07T01:07:25.204Z,100870.76
2018-04-07T01:08:31.422Z,100871.16
2018-04-07T01:09:42.748Z,100860.78
2018-04-07T01:10:49.017Z,100869.05
2018-04-07T01:11:55.294Z,100863.03
2018-04-07T01:13:01.271Z,100867.81
2018-04-07T01:14:07.479Z,100870.35
2018-04-07T01:15:13.482Z,100865.13
2018-04-07T01:16:19.735Z,100861.73
2018-04-07T01:17:26.189Z,100857.84
2018-04-07T01:18:37.855Z,100860.49
2018-04-07T01:19:44.096Z,100860.03
2018-04-07T01:20:50.318Z,100864.77
2018-04-07T01:21:56.582Z,100864.33
2018-04-07T01:23:02.852Z,100856.59
2018-04-07T01:24:09.118Z,100863.92
2018-04-07T01:25:15.348Z,100865.22
2018-04-07T01:26:21.608Z,100856.97
2018-04-07T01:27:28.698Z,100860.92
2018-04-07T01:28:35.003Z,100860.05
2018-04-07T01:29:41.653Z,100856.19
2018-04-07T01:30:47.911Z,100856.19
2018-04-07T01:31:54.657Z,100861.44
2018-04-07T01:33:00.876Z,100860.54
2018-04-07T01:34:07.125Z,100860.57
2018-04-07T01:35:13.399Z,100860.14
2018-04-07T01:36:19.678Z,100860.16
2018-04-07T01:37:25.908Z,100860.19
2018-04-07T01:38:32.209Z,100861.08
2018-04-07T01:39:38.229Z,100856.34
2018-04-07T01:40:44.470Z,100853.78
2018-04-07T01:41:50.605Z,100856.34
2018-04-07T01:42:56.878Z,100855.91
2018-04-07T01:44:03.132Z,100855.98
2018-04-07T01:45:09.384Z,100854.25
2018-04-07T01:46:15.647Z,100854.30
2018-04-07T01:47:21.847Z,100850.91
2018-04-07T01:48:32.340Z,100846.61
2018-04-07T01:49:43.417Z,100840.98
2018-04-07T01:50:49.917Z,100843.16
2018-04-07T01:51:56.184Z,100846.19
2018-04-07T01:53:02.122Z,100837.06
2018-04-07T01:54:08.381Z,100837.01
2018-04-07T01:55:14.674Z,100833.08
2018-04-07T01:56:20.579Z,100842.22
2018-04-07T01:57:26.822Z,100841.16
2018-04-07T01:58:33.092Z,100840.70
2018-04-07T01:59:39.437Z,100838.62
2018-04-07T02:00:47.167Z,100834.13
2018-04-07T02:01:53.456Z,100835.84
2018-04-07T02:02:59.676Z,100834.13
2018-04-07T02:04:05.652Z,100834.59
2018-04-07T02:05:11.841Z,100839.41
2018-04-07T02:06:18.049Z,100831.08
2018-04-07T02:07:24.271Z,100836.64
2018-04-07T02:08:30.563Z,100834.48
2018-04-07T02:09:36.832Z,100833.23
2018-04-07T02:10:42.683Z,100830.52
2018-04-07T02:11:48.945Z,100834.48
2018-04-07T02:12:55.385Z,100833.18
2018-04-07T02:14:01.337Z,100834.48
2018-04-07T02:15:07.947Z,100839.20
2018-04-07T02:16:14.180Z,100834.42
2018-04-07T02:17:20.446Z,100837.94
2018-04-07T02:18:26.704Z,100840.07
2018-04-07T02:19:33.054Z,100841.08
2018-04-07T02:20:39.288Z,100836.67
2018-04-07T02:21:45.602Z,100836.38
2018-04-07T02:22:51.509Z,100835.48
2018-04-07T02:23:57.766Z,100836.91
2018-04-07T02:25:04.074Z,100831.67
2018-04-07T02:26:10.308Z,100829.45
2018-04-07T02:27:16.567Z,100827.37
2018-04-07T02:28:22.468Z,100833.41
2018-04-07T02:29:28.732Z,100836.41
2018-04-07T02:30:36.286Z,100831.62
2018-04-07T02:31:42.531Z,100827.35
2018-04-07T02:32:49.250Z,100829.00
2018-04-07T02:33:55.461Z,100824.22
2018-04-07T02:35:01.764Z,100828.51
2018-04-07T02:36:08.017Z,100825.08
2018-04-07T02:37:14.304Z,100824.16
2018-04-07T02:38:20.541Z,100833.15
2018-04-07T02:39:26.804Z,100826.75
2018-04-07T02:40:33.058Z,100825.05
2018-04-07T02:41:39.289Z,100829.38
2018-04-07T02:42:46.318Z,100828.53
2018-04-07T02:43:52.716Z,100831.10
2018-04-07T02:44:59.006Z,100822.02
2018-04-07T02:46:05.261Z,100826.92
2018-04-07T02:47:11.390Z,100825.24
2018-04-07T02:48:17.723Z,100824.81
2018-04-07T02:49:23.989Z,100817.81
2018-04-07T02:50:30.286Z,100823.00
2018-04-07T02:51:43.126Z,100822.14
2018-04-07T02:52:49.351Z,100820.34
2018-04-07T02:53:55.556Z,100818.59
2018-04-07T02:55:01.827Z,100819.27
2018-04-07T02:56:07.839Z,100823.03
2018-04-07T02:57:14.093Z,100821.75
2018-04-07T02:58:20.385Z,100823.81
2018-04-07T02:59:26.617Z,100817.34
2018-04-07T03:00:32.849Z,100822.14
2018-04-07T03:01:39.071Z,100818.67
2018-04-07T03:02:45.288Z,100820.97
2018-04-07T03:03:51.535Z,100815.38
2018-04-07T03:04:57.774Z,100815.80
2018-04-07T03:06:04.073Z,100814.86
2018-04-07T03:07:10.055Z,100810.95
2018-04-07T03:08:16.328Z,100816.19
2018-04-07T03:09:22.603Z,100818.75
2018-04-07T03:10:28.825Z,100819.28
2018-04-07T03:11:35.150Z,100812.27
2018-04-07T03:12:41.371Z,100810.13
2018-04-07T03:13:53.612Z,100812.35
2018-04-07T03:14:59.950Z,100813.55
2018-04-07T03:16:06.195Z,100815.38
2018-04-07T03:17:12.429Z,100818.00
2018-04-07T03:18:18.703Z,100814.86
2018-04-07T03:19:24.960Z,100809.32
2018-04-07T03:20:31.212Z,100808.84
2018-04-07T03:21:37.512Z,100812.65
2018-04-07T03:22:43.572Z,100807.52
2018-04-07T03:23:49.796Z,100807.92
2018-04-07T03:24:56.142Z,100807.92
2018-04-07T03:26:02.506Z,100808.89
2018-04-07T03:27:08.782Z,100801.59
2018-04-07T03:28:14.991Z,100807.16
2018-04-07T03:29:21.330Z,100800.65
2018-04-07T03:30:27.582Z,100801.08
2018-04-07T03:31:33.801Z,100796.81
2018-04-07T03:32:40.084Z,100796.81
2018-04-07T03:33:46.470Z,100802.76
2018-04-07T03:34:52.748Z,100800.11
2018-04-07T03:35:59.005Z,100796.33
2018-04-07T03:37:05.368Z,100793.67
2018-04-07T03:38:11.670Z,100795.41
2018-04-07T03:39:17.947Z,100791.55
2018-04-07T03:40:24.168Z,100786.36
2018-04-07T03:41:30.418Z,100790.78
2018-04-07T03:42:36.426Z,100790.81
2018-04-07T03:43:42.739Z,100792.11
2018-04-07T03:44:48.771Z,100789.52
2018-04-07T03:45:54.797Z,100786.89
2018-04-07T03:47:01.555Z,100794.65
2018-04-07T03:48:07.614Z,100792.61
2018-04-07T03:49:13.635Z,100789.11
2018-04-07T03:50:19.682Z,100787.02
2018-04-07T03:51:25.960Z,100784.45
2018-04-07T03:52:32.233Z,100791.77
2018-04-07T03:53:39.283Z,100786.52
2018-04-07T03:54:45.968Z,100779.57
2018-04-07T03:55:51.913Z,100784.42
2018-04-07T03:56:58.147Z,100785.73
2018-04-07T03:58:04.561Z,100792.22
2018-04-07T03:59:10.572Z,100789.67
2018-04-07T04:00:16.847Z,100786.63
2018-04-07T04:01:22.827Z,100784.90
2018-04-07T04:02:29.069Z,100788.02
2018-04-07T04:03:35.334Z,100786.31
2018-04-07T04:04:41.352Z,100789.39
2018-04-07T04:05:47.394Z,100781.17
2018-04-07T04:06:53.706Z,100781.63
2018-04-07T04:07:59.940Z,100785.02
2018-04-07T04:09:06.752Z,100778.55
2018-04-07T04:10:13.028Z,100777.70
2018-04-07T04:11:19.268Z,100780.27
2018-04-07T04:12:25.491Z,100776.47
2018-04-07T04:13:31.728Z,100778.20
2018-04-07T04:14:37.968Z,100775.61
2018-04-07T04:15:44.277Z,100775.66
2018-04-07T04:16:50.253Z,100771.32
2018-04-07T04:17:56.459Z,100772.62
2018-04-07T04:19:02.732Z,100774.77
2018-04-07T04:20:08.928Z,100771.32
2018-04-07T04:21:15.222Z,100773.00
2018-04-07T04:22:21.764Z,100769.59
2018-04-07T04:23:27.993Z,100773.94
2018-04-07T04:24:34.241Z,100771.78
2018-04-07T04:25:40.495Z,100780.33
2018-04-07T04:26:46.792Z,100775.17
2018-04-07T04:27:53.013Z,100775.19
2018-04-07T04:28:59.222Z,100774.78
2018-04-07T04:30:05.876Z,100774.83
2018-04-07T04:31:12.110Z,100770.55
2018-04-07T04:32:18.433Z,100776.14
2018-04-07T04:33:26.135Z,100768.80
2018-04-07T04:34:32.386Z,100778.76
2018-04-07T04:35:39.242Z,100769.27
2018-04-07T04:36:45.466Z,100781.28
2018-04-07T04:37:52.408Z,100774.05
2018-04-07T04:38:58.653Z,100774.89
2018-04-07T04:40:04.537Z,100771.88
2018-04-07T04:41:10.834Z,100778.81
2018-04-07T04:42:17.130Z,100777.94
2018-04-07T04:43:24.116Z,100779.23
2018-04-07T04:44:30.317Z,100774.05
2018-04-07T04:45:36.626Z,100777.50
2018-04-07T04:46:43.229Z,100780.11
2018-04-07T04:47:49.492Z,100776.60
2018-04-07T04:48:55.735Z,100783.45
2018-04-07T04:50:02.004Z,100777.89
2018-04-07T04:51:08.425Z,100776.60
2018-04-07T04:52:14.667Z,100772.28
2018-04-07T04:53:21.005Z,100769.16
2018-04-07T04:54:27.239Z,100769.22
2018-04-07T04:55:33.494Z,100770.51
2018-04-07T04:56:39.828Z,100767.45
2018-04-07T04:57:46.944Z,100769.21
2018-04-07T04:58:53.158Z,100775.67
2018-04-07T04:59:59.394Z,100772.70
2018-04-07T05:01:05.637Z,100773.92
2018-04-07T05:02:12.595Z,100776.96
2018-04-07T05:03:18.806Z,100769.20
2018-04-07T05:04:24.842Z,100772.62
2018-04-07T05:05:31.136Z,100766.98
2018-04-07T05:06:37.426Z,100770.48
2018-04-07T05:07:43.729Z,100767.41
2018-04-07T05:08:50.798Z,100764.39
2018-04-07T05:09:56.993Z,100767.38
2018-04-07T05:11:03.258Z,100766.47
2018-04-07T05:12:09.463Z,100763.34
2018-04-07T05:13:15.707Z,100766.04
2018-04-07T05:14:21.916Z,100760.41
2018-04-07T05:15:27.936Z,100764.70
2018-04-07T05:16:34.008Z,100758.16
2018-04-07T05:17:40.269Z,100762.94
2018-04-07T05:18:47.447Z,100763.33
2018-04-07T05:19:54.081Z,100761.59
2018-04-07T05:21:00.331Z,100762.51
2018-04-07T05:22:07.161Z,100764.09
2018-04-07T05:23:13.432Z,100763.66
2018-04-07T05:24:19.838Z,100759.70
2018-04-07T05:25:26.103Z,100762.12
2018-04-07T05:26:32.686Z,100754.16
2018-04-07T05:27:38.928Z,100757.70
2018-04-07T05:28:45.840Z,100760.66
2018-04-07T05:29:52.889Z,100760.89
2018-04-07T05:31:05.188Z,100760.62
2018-04-07T05:32:11.412Z,100764.48
2018-04-07T05:33:17.656Z,100764.55
2018-04-07T05:34:23.621Z,100764.19
2018-04-07T05:35:29.825Z,100765.92
2018-04-07T05:36:36.011Z,100762.39
2018-04-07T05:37:42.234Z,100762.74
2018-04-07T05:38:48.431Z,100763.48
2018-04-07T05:39:56.431Z,100759.52
2018-04-07T05:41:03.406Z,100764.75
2018-04-07T05:42:10.068Z,100766.16
2018-04-07T05:43:16.815Z,100763.38
2018-04-07T05:44:24.924Z,100768.27
2018-04-07T05:45:31.640Z,100766.55
2018-04-07T05:46:37.849Z,100765.34
2018-04-07T05:47:44.241Z,100766.63
2018-04-07T05:48:50.640Z,100765.18
2018-04-07T05:49:57.011Z,100766.43
2018-04-07T05:51:03.766Z,100756.58
2018-04-07T05:52:10.432Z,100764.52
2018-04-07T05:53:16.963Z,100765.60
2018-04-07T05:54:23.887Z,100763.08
2018-04-07T05:55:30.516Z,100759.96
2018-04-07T05:56:36.959Z,100760.86
2018-04-07T05:57:43.509Z,100753.30
2018-04-07T05:58:50.333Z,100762.97
2018-04-07T05:59:59.583Z,100763.38
2018-04-07T06:01:07.796Z,100757.95
2018-04-07T06:02:14.424Z,100761.73
2018-04-07T06:03:20.782Z,100758.66
2018-04-07T06:04:27.186Z,100762.73
2018-04-07T06:05:33.912Z,100755.19
2018-04-07T06:06:40.137Z,100758.01
2018-04-07T06:07:46.532Z,100758.54
2018-04-07T06:08:53.079Z,100755.55
2018-04-07T06:09:58.935Z,100756.22
2018-04-07T06:11:05.246Z,100758.66
2018-04-07T06:12:12.145Z,100753.45
2018-04-07T06:13:18.786Z,100756.91
2018-04-07T06:14:25.321Z,100755.02
2018-04-07T06:15:31.716Z,100754.95
2018-04-07T06:16:38.585Z,100750.48
2018-04-07T06:17:44.994Z,100751.34
2018-04-07T06:18:51.500Z,100754.09
2018-04-07T06:19:59.206Z,100753.62
2018-04-07T06:21:06.148Z,100755.63
2018-04-07T06:22:12.915Z,100750.74
2018-04-07T06:23:19.406Z,100755.10
2018-04-07T06:24:26.065Z,100754.81
2018-04-07T06:25:32.408Z,100750.67
2018-04-07T06:26:38.894Z,100747.92
2018-04-07T06:27:45.602Z,100744.91
2018-04-07T06:28:52.113Z,100745.64
2018-04-07T06:29:58.427Z,100743.64
2018-04-07T06:31:04.984Z,100742.41
2018-04-07T06:32:11.539Z,100741.58
2018-04-07T06:33:18.135Z,100739.38
2018-04-07T06:34:24.797Z,100739.52
2018-04-07T06:35:31.265Z,100739.13
2018-04-07T06:36:37.929Z,100742.91
2018-04-07T06:37:45.527Z,100746.69
2018-04-07T06:38:53.000Z,100745.27
2018-04-07T06:40:00.938Z,100746.35
2018-04-07T06:41:07.975Z,100741.98
2018-04-07T06:42:14.208Z,100741.02
2018-04-07T06:43:20.400Z,100742.96
2018-04-07T06:44:26.609Z,100741.98
2018-04-07T06:45:32.837Z,100734.56
2018-04-07T06:46:38.876Z,100738.99
2018-04-07T06:47:45.120Z,100734.56
2018-04-07T06:48:51.315Z,100739.30
2018-04-07T06:49:57.192Z,100739.84
2018-04-07T06:51:03.412Z,100736.14
2018-04-07T06:52:09.663Z,100732.33
2018-04-07T06:53:17.384Z,100741.64
2018-04-07T06:54:23.774Z,100737.50
2018-04-07T06:55:30.089Z,100729.38
2018-04-07T06:56:36.362Z,100734.66
2018-04-07T06:57:42.695Z,100737.80
2018-04-07T06:58:50.091Z,100727.05
2018-04-07T06:59:56.901Z,100731.29
2018-04-07T07:01:03.641Z,100728.05
2018-04-07T07:02:10.079Z,100724.56
2018-04-07T07:03:16.528Z,100731.19
2018-04-07T07:04:22.859Z,100724.67
2018-04-07T07:05:29.963Z,100725.42
2018-04-07T07:06:37.878Z,100723.88
2018-04-07T07:07:44.170Z,100723.33
2018-04-07T07:08:50.649Z,100722.80
2018-04-07T07:09:57.196Z,100721.97
2018-04-07T07:11:03.465Z,100725.38
2018-04-07T07:12:09.977Z,100721.59
2018-04-07T07:13:16.621Z,100718.60
2018-04-07T07:14:23.201Z,100712.92
2018-04-07T07:15:29.572Z,100717.14
2018-04-07T07:16:36.382Z,100712.91
2018-04-07T07:17:44.065Z,100713.73
2018-04-07T07:18:50.184Z,100707.22
2018-04-07T07:19:56.657Z,100708.67
2018-04-07T07:21:03.086Z,100709.97
2018-04-07T07:22:09.484Z,100706.59
2018-04-07T07:23:16.789Z,100697.60
2018-04-07T07:24:27.297Z,100703.77
2018-04-07T07:25:39.908Z,100699.36
2018-04-07T07:26:45.997Z,100694.05
2018-04-07T07:27:52.256Z,100699.48
2018-04-07T07:28:58.504Z,100692.61
2018-04-07T07:30:04.066Z,100690.58
2018-04-07T07:31:10.111Z,100689.55
2018-04-07T07:32:16.422Z,100693.69
2018-04-07T07:33:22.480Z,100690.66
2018-04-07T07:34:28.792Z,100696.67
2018-04-07T07:35:35.005Z,100692.20
2018-04-07T07:36:41.482Z,100693.23
2018-04-07T07:37:47.774Z,100691.02
2018-04-07T07:38:55.515Z,100688.17
2018-04-07T07:40:02.121Z,100683.47
2018-04-07T07:41:09.082Z,100687.55
2018-04-07T07:42:15.469Z,100688.18
2018-04-07T07:43:21.801Z,100676.48
2018-04-07T07:44:28.161Z,100685.49
2018-04-07T07:45:34.491Z,100681.02
2018-04-07T07:46:40.850Z,100679.62
2018-04-07T07:47:47.320Z,100676.98
2018-04-07T07:48:53.643Z,100672.94
2018-04-07T07:50:00.012Z,100677.06
2018-04-07T07:51:07.217Z,100677.39
2018-04-07T07:52:13.526Z,100675.26
2018-04-07T07:53:19.810Z,100681.13
2018-04-07T07:54:26.171Z,100671.49
2018-04-07T07:55:33.126Z,100671.84
2018-04-07T07:56:39.685Z,100674.10
2018-04-07T07:57:46.012Z,100665.70
2018-04-07T07:58:52.453Z,100667.73
2018-04-07T07:59:58.840Z,100662.71
2018-04-07T08:01:05.346Z,100663.23
2018-04-07T08:02:11.679Z,100661.64
2018-04-07T08:03:18.081Z,100663.00
2018-04-07T08:04:25.251Z,100663.75
2018-04-07T08:05:31.647Z,100662.45
2018-04-07T08:06:37.980Z,100667.13
2018-04-07T08:07:44.344Z,100664.12
2018-04-07T08:08:50.680Z,100655.97
2018-04-07T08:09:57.030Z,100655.90
2018-04-07T08:11:04.054Z,100652.30
2018-04-07T08:12:10.462Z,100660.14
2018-04-07T08:13:16.810Z,100662.56
2018-04-07T08:14:23.473Z,100660.70
2018-04-07T08:15:29.869Z,100657.40
2018-04-07T08:16:36.165Z,100651.27
2018-04-07T08:17:42.593Z,100657.80
2018-04-07T08:18:48.969Z,100664.77
2018-04-07T08:19:55.461Z,100657.80
2018-04-07T08:21:02.380Z,100658.38
2018-04-07T08:22:08.699Z,100653.48
2018-04-07T08:23:14.985Z,100654.64
2018-04-07T08:24:21.292Z,100656.59
2018-04-07T08:25:27.581Z,100656.12
2018-04-07T08:26:33.880Z,100656.95
2018-04-07T08:27:40.441Z,100655.11
2018-04-07T08:28:46.889Z,100654.70
2018-04-07T08:29:53.190Z,100651.88
2018-04-07T08:30:59.255Z,100653.89
2018-04-07T08:32:05.247Z,100650.01
2018-04-07T08:33:11.695Z,100646.17
2018-04-07T08:34:17.745Z,100647.72
2018-04-07T08:35:24.056Z,100654.81
2018-04-07T08:36:30.788Z,100649.77
2018-04-07T08:37:37.615Z,100651.97
2018-04-07T08:38:43.632Z,100645.80
2018-04-07T08:39:49.895Z,100647.92
2018-04-07T08:40:56.174Z,100649.82
2018-04-07T08:42:02.416Z,100648.42
2018-04-07T08:43:08.661Z,100649.20
2018-04-07T08:44:14.946Z,100646.88
2018-04-07T08:45:21.208Z,100644.42
2018-04-07T08:46:27.656Z,100649.14
2018-04-07T08:47:33.932Z,100651.66
2018-04-07T08:48:42.079Z,100647.80
2018-04-07T08:49:48.341Z,100643.00
2018-04-07T08:50:54.591Z,100649.64
2018-04-07T08:52:00.833Z,100646.41
2018-04-07T08:53:07.076Z,100643.41
2018-04-07T08:54:13.362Z,100643.58
2018-04-07T08:55:19.690Z,100649.58
2018-04-07T08:56:25.973Z,100649.75
2018-04-07T08:57:32.244Z,100638.77
2018-04-07T08:58:38.522Z,100640.02
2018-04-07T08:59:44.805Z,100643.69
2018-04-07T09:00:51.084Z,100640.95
2018-04-07T09:01:57.357Z,100645.81
2018-04-07T09:03:03.851Z,100640.35
2018-04-07T09:04:10.093Z,100639.88
2018-04-07T09:05:16.365Z,100635.91
2018-04-07T09:06:22.608Z,100642.82
2018-04-07T09:07:28.878Z,100643.63
2018-04-07T09:08:35.107Z,100641.00
2018-04-07T09:09:41.386Z,100642.53
2018-04-07T09:10:47.636Z,100638.33
2018-04-07T09:11:53.865Z,100646.56
2018-04-07T09:13:00.117Z,100644.05
2018-04-07T09:14:06.350Z,100643.22
2018-04-07T09:15:12.585Z,100645.04
2018-04-07T09:16:18.884Z,100638.09
2018-04-07T09:17:25.126Z,100639.12
2018-04-07T09:18:31.376Z,100641.42
2018-04-07T09:19:37.432Z,100636.73
2018-04-07T09:20:43.688Z,100641.33
2018-04-07T09:21:50.775Z,100642.44
2018-04-07T09:22:57.117Z,100637.99
2018-04-07T09:24:03.455Z,100637.71
2018-04-07T09:25:09.698Z,100638.70
2018-04-07T09:26:15.919Z,100639.07
2018-04-07T09:27:22.179Z,100637.09
2018-04-07T09:28:28.432Z,100635.67
2018-04-07T09:29:34.737Z,100639.83
2018-04-07T09:30:40.979Z,100638.31
2018-04-07T09:31:47.262Z,100642.82
2018-04-07T09:32:53.505Z,100639.30
2018-04-07T09:33:59.792Z,100639.30
2018-04-07T09:35:06.073Z,100639.23
2018-04-07T09:36:12.385Z,100640.81
2018-04-07T09:37:18.653Z,100639.80
2018-04-07T09:38:24.962Z,100637.63
2018-04-07T09:39:31.232Z,100634.02
2018-04-07T09:40:37.576Z,100630.79
2018-04-07T09:41:43.854Z,100634.78
2018-04-07T09:42:50.245Z,100636.38
2018-04-07T09:43:56.318Z,100629.41
2018-04-07T09:45:07.641Z,100629.73
2018-04-07T09:46:13.652Z,100629.43
2018-04-07T09:47:19.921Z,100628.44
2018-04-07T09:48:26.170Z,100632.02
2018-04-07T09:49:32.456Z,100629.09
2018-04-07T09:50:41.598Z,100627.75
2018-04-07T09:51:47.855Z,100622.94
2018-04-07T09:52:54.159Z,100629.66
2018-04-07T09:54:00.433Z,100624.52
2018-04-07T09:55:06.656Z,100620.92
2018-04-07T09:56:12.948Z,100624.77
2018-04-07T09:57:20.530Z,100621.05
2018-04-07T09:58:26.921Z,100621.29
2018-04-07T09:59:33.228Z,100620.99
2018-04-07T10:00:39.290Z,100619.82
2018-04-07T10:01:45.601Z,100620.28
2018-04-07T10:03:06.500Z,100613.69
2018-04-07T10:04:12.748Z,100620.20
2018-04-07T10:05:20.210Z,100616.72
2018-04-07T10:06:26.664Z,100614.53
2018-04-07T10:07:32.971Z,100610.94
2018-04-07T10:08:39.119Z,100612.36
2018-04-07T10:09:46.002Z,100612.98
2018-04-07T10:10:52.316Z,100610.32
2018-04-07T10:12:09.114Z,100599.62
2018-04-07T10:13:16.297Z,100602.41
2018-04-07T10:14:22.669Z,100603.69
2018-04-07T10:15:29.033Z,100606.02
2018-04-07T10:16:35.366Z,100601.78
2018-04-07T10:17:42.241Z,100598.06
2018-04-07T10:18:48.384Z,100593.54
2018-04-07T10:19:54.759Z,100599.36
2018-04-07T10:21:01.226Z,100601.27
2018-04-07T10:22:07.584Z,100602.79
2018-04-07T10:23:13.972Z,100590.16
2018-04-07T10:24:20.499Z,100596.31
2018-04-07T10:25:26.941Z,100595.34
2018-04-07T10:26:33.918Z,100593.20
2018-04-07T10:27:40.040Z,100591.78
2018-04-07T10:28:47.271Z,100585.44
2018-04-07T10:29:54.585Z,100599.23
2018-04-07T10:31:00.903Z,100592.96
2018-04-07T10:32:06.895Z,100588.94
2018-04-07T10:33:20.074Z,100589.87
2018-04-07T10:34:26.353Z,100587.36
2018-04-07T10:35:32.611Z,100587.70
2018-04-07T10:36:39.517Z,100583.19
2018-04-07T10:37:46.515Z,100582.11
2018-04-07T10:38:52.781Z,100584.56
2018-04-07T10:39:59.021Z,100588.63
2018-04-07T10:41:05.298Z,100579.53
2018-04-07T10:42:11.546Z,100589.88
2018-04-07T10:43:17.805Z,100581.47
2018-04-07T10:44:24.052Z,100580.74
2018-04-07T10:45:30.305Z,100582.44
2018-04-07T10:46:36.535Z,100577.13
2018-04-07T10:47:42.793Z,100577.91
2018-04-07T10:48:48.711Z,100573.95
2018-04-07T10:49:54.979Z,100568.73
2018-04-07T10:51:01.240Z,100576.06
2018-04-07T10:52:07.502Z,100575.55
2018-04-07T10:53:13.751Z,100571.22
2018-04-07T10:54:25.754Z,100570.38
2018-04-07T10:55:33.109Z,100569.26
2018-04-07T10:56:40.235Z,100572.98
2018-04-07T10:57:46.526Z,100574.73
2018-04-07T10:58:52.784Z,100574.20
2018-04-07T10:59:58.792Z,100564.08
2018-04-07T11:01:05.270Z,100567.36
2018-04-07T11:02:11.519Z,100558.47
2018-04-07T11:03:18.333Z,100557.62
2018-04-07T11:04:24.593Z,100564.38
2018-04-07T11:05:30.834Z,100558.57
2018-04-07T11:06:37.093Z,100559.20
2018-04-07T11:07:43.565Z,100561.64
2018-04-07T11:08:49.795Z,100553.28
2018-04-07T11:09:56.051Z,100546.94
2018-04-07T11:11:02.332Z,100549.58
2018-04-07T11:12:08.598Z,100543.22
2018-04-07T11:13:14.871Z,100540.86
2018-04-07T11:14:21.126Z,100535.48
2018-04-07T11:15:28.053Z,100543.73
2018-04-07T11:16:34.340Z,100539.25
2018-04-07T11:17:40.649Z,100535.10
2018-04-07T11:18:46.932Z,100532.68
2018-04-07T11:19:53.254Z,100537.77
2018-04-07T11:20:59.586Z,100533.09
2018-04-07T11:22:05.864Z,100530.66
2018-04-07T11:23:12.173Z,100530.59
2018-04-07T11:24:18.423Z,100532.80
2018-04-07T11:25:24.675Z,100532.19
2018-04-07T11:26:30.705Z,100521.37
2018-04-07T11:27:36.951Z,100517.20
2018-04-07T11:28:43.228Z,100521.56
2018-04-07T11:29:49.468Z,100524.77
2018-04-07T11:30:55.732Z,100520.67
2018-04-07T11:32:02.015Z,100518.95
2018-04-07T11:33:08.313Z,100525.45
2018-04-07T11:34:14.730Z,100523.73
2018-04-07T11:35:21.271Z,100516.86
2018-04-07T11:36:32.686Z,100514.12
2018-04-07T11:37:40.798Z,100510.31
2018-04-07T11:38:47.084Z,100517.40
2018-04-07T11:39:53.372Z,100509.49
2018-04-07T11:40:59.621Z,100514.59
2018-04-07T11:42:06.162Z,100515.32
2018-04-07T11:43:12.507Z,100511.29
2018-04-07T11:44:18.822Z,100507.38
2018-04-07T11:45:25.100Z,100502.08
2018-04-07T11:46:31.467Z,100501.26
2018-04-07T11:47:37.827Z,100506.35
2018-04-07T11:48:44.112Z,100506.78
2018-04-07T11:49:50.181Z,100500.20
2018-04-07T11:50:56.451Z,100506.44
2018-04-07T11:52:02.720Z,100498.86
2018-04-07T11:53:08.730Z,100497.69
2018-04-07T11:54:15.226Z,100496.77
2018-04-07T11:55:21.500Z,100489.41
2018-04-07T11:56:27.772Z,100484.11
2018-04-07T11:57:35.148Z,100485.14
2018-04-07T11:58:41.420Z,100483.47
2018-04-07T11:59:47.693Z,100483.12
2018-04-07T12:00:53.982Z,100480.41
2018-04-07T12:02:00.245Z,100481.94
2018-04-07T12:03:06.536Z,100482.92
2018-04-07T12:04:12.825Z,100475.31
2018-04-07T12:05:19.124Z,100477.28
2018-04-07T12:06:25.427Z,100470.01
2018-04-07T12:07:31.712Z,100472.61
2018-04-07T12:08:37.984Z,100474.41
2018-04-07T12:09:44.204Z,100475.00
2018-04-07T12:10:50.481Z,100474.55
2018-04-07T12:11:57.222Z,100469.72
2018-04-07T12:13:03.517Z,100463.00
2018-04-07T12:14:09.801Z,100461.38
2018-04-07T12:15:16.164Z,100465.73
2018-04-07T12:16:22.209Z,100459.73
2018-04-07T12:17:28.483Z,100463.75
2018-04-07T12:18:34.740Z,100456.74
2018-04-07T12:19:41.066Z,100456.48
2018-04-07T12:20:47.370Z,100455.47
2018-04-07T12:21:53.373Z,100454.36
2018-04-07T12:22:59.682Z,100453.61
2018-04-07T12:24:05.952Z,100444.70
2018-04-07T12:25:12.256Z,100448.65
2018-04-07T12:26:18.547Z,100448.32
2018-04-07T12:27:24.813Z,100448.38
2018-04-07T12:28:31.109Z,100448.29
2018-04-07T12:29:37.433Z,100444.70
2018-04-07T12:30:43.734Z,100440.17
2018-04-07T12:31:50.026Z,100441.61
2018-04-07T12:32:56.344Z,100435.45
2018-04-07T12:34:02.253Z,100442.40
2018-04-07T12:35:08.531Z,100438.45
2018-04-07T12:36:14.779Z,100437.05
2018-04-07T12:37:20.704Z,100434.28
2018-04-07T12:38:26.952Z,100438.75
2018-04-07T12:39:33.203Z,100429.53